sensor_id;sensor_type;location;lat;lon;timestamp;temperature;humidity
22065;DHT22;11197;53.110;8.468;2022-11-28T00:01:02;6.60;99.90
22065;DHT22;11197;53.110;8.468;2022-11-28T00:03:29;6.60;99.90
22065;DHT22;11197;53.110;8.468;2022-11-28T00:05:55;6.60;99.90
22065;DHT22;11197;53.110;8.468;2022-11-28T00:08:21;6.60;99.90
22065;DHT22;11197;53.110;8.468;2022-11-28T00:10:47;6.60;99.90
22065;DHT22;11197;53.110;8.468;2022-11-28T00:13:13;6.60;99.90
22065;DHT22;11197;53.110;8.468;2022-11-28T00:15:39;6.60;99.90
22065;DHT22;11197;53.110;8.468;2022-11-28T00:18:06;6.60;99.90
22065;DHT22;11197;53.110;8.468;2022-11-28T00:20:32;6.60;99.90
22065;DHT22;11197;53.110;8.468;2022-11-28T00:22:58;6.60;99.90
22065;DHT22;11197;53.110;8.468;2022-11-28T00:25:24;6.60;99.90
22065;DHT22;11197;53.110;8.468;2022-11-28T00:27:50;6.60;99.90
22065;DHT22;11197;53.110;8.468;2022-11-28T00:30:16;6.60;99.90
22065;DHT22;11197;53.110;8.468;2022-11-28T00:32:42;6.60;99.90
22065;DHT22;11197;53.110;8.468;2022-11-28T00:35:08;6.60;99.90
22065;DHT22;11197;53.110;8.468;2022-11-28T00:37:34;6.60;99.90
22065;DHT22;11197;53.110;8.468;2022-11-28T00:40:00;6.60;99.90
22065;DHT22;11197;53.110;8.468;2022-11-28T00:42:26;6.50;99.90
22065;DHT22;11197;53.110;8.468;2022-11-28T00:44:52;6.60;99.90
22065;DHT22;11197;53.110;8.468;2022-11-28T00:47:18;6.50;99.90
22065;DHT22;11197;53.110;8.468;2022-11-28T00:49:43;6.60;99.90
22065;DHT22;11197;53.110;8.468;2022-11-28T00:52:09;6.60;99.90
22065;DHT22;11197;53.110;8.468;2022-11-28T00:54:35;6.60;99.90
22065;DHT22;11197;53.110;8.468;2022-11-28T00:57:01;6.50;99.90
22065;DHT22;11197;53.110;8.468;2022-11-28T00:59:27;6.50;99.90
22065;DHT22;11197;53.110;8.468;2022-11-28T01:01:53;6.50;99.90
22065;DHT22;11197;53.110;8.468;2022-11-28T01:04:19;6.50;99.90
22065;DHT22;11197;53.110;8.468;2022-11-28T01:06:49;6.50;99.90
22065;DHT22;11197;53.110;8.468;2022-11-28T01:09:21;6.60;99.90
22065;DHT22;11197;53.110;8.468;2022-11-28T01:11:49;6.50;99.90
22065;DHT22;11197;53.110;8.468;2022-11-28T01:14:21;6.50;99.90
22065;DHT22;11197;53.110;8.468;2022-11-28T01:16:48;6.50;99.90
22065;DHT22;11197;53.110;8.468;2022-11-28T01:19:14;6.50;99.90
22065;DHT22;11197;53.110;8.468;2022-11-28T01:21:39;6.50;99.90
22065;DHT22;11197;53.110;8.468;2022-11-28T01:24:06;6.50;99.90
22065;DHT22;11197;53.110;8.468;2022-11-28T01:26:32;6.50;99.90
22065;DHT22;11197;53.110;8.468;2022-11-28T01:28:59;6.50;99.90
22065;DHT22;11197;53.110;8.468;2022-11-28T01:31:27;6.50;99.90
22065;DHT22;11197;53.110;8.468;2022-11-28T01:33:53;6.50;99.90
22065;DHT22;11197;53.110;8.468;2022-11-28T01:36:21;6.50;99.90
22065;DHT22;11197;53.110;8.468;2022-11-28T01:38:47;6.50;99.90
22065;DHT22;11197;53.110;8.468;2022-11-28T01:41:15;6.50;99.90
22065;DHT22;11197;53.110;8.468;2022-11-28T01:44:00;6.40;99.90
22065;DHT22;11197;53.110;8.468;2022-11-28T01:46:27;6.40;99.90
22065;DHT22;11197;53.110;8.468;2022-11-28T01:48:55;6.40;99.90
22065;DHT22;11197;53.110;8.468;2022-11-28T01:51:22;6.40;99.90
22065;DHT22;11197;53.110;8.468;2022-11-28T01:53:48;6.40;99.90
22065;DHT22;11197;53.110;8.468;2022-11-28T01:56:18;6.40;99.90
22065;DHT22;11197;53.110;8.468;2022-11-28T01:58:48;6.40;99.90
22065;DHT22;11197;53.110;8.468;2022-11-28T02:01:16;6.40;99.90
22065;DHT22;11197;53.110;8.468;2022-11-28T02:03:46;6.40;99.90
22065;DHT22;11197;53.110;8.468;2022-11-28T02:06:15;6.40;99.90
22065;DHT22;11197;53.110;8.468;2022-11-28T02:08:41;6.40;99.90
22065;DHT22;11197;53.110;8.468;2022-11-28T02:11:18;6.40;99.90
22065;DHT22;11197;53.110;8.468;2022-11-28T02:22:40;6.40;99.90
22065;DHT22;11197;53.110;8.468;2022-11-28T02:25:43;6.40;99.90
22065;DHT22;11197;53.110;8.468;2022-11-28T02:33:58;6.40;99.90
22065;DHT22;11197;53.110;8.468;2022-11-28T02:36:42;6.40;99.90
22065;DHT22;11197;53.110;8.468;2022-11-28T02:42:16;6.40;99.90
22065;DHT22;11197;53.110;8.468;2022-11-28T02:45:00;6.40;99.90
22065;DHT22;11197;53.110;8.468;2022-11-28T02:47:36;6.40;99.90
22065;DHT22;11197;53.110;8.468;2022-11-28T02:52:38;6.40;99.90
22065;DHT22;11197;53.110;8.468;2022-11-28T02:55:05;6.40;99.90
22065;DHT22;11197;53.110;8.468;2022-11-28T02:57:40;6.40;99.90
22065;DHT22;11197;53.110;8.468;2022-11-28T03:00:30;6.40;99.90
22065;DHT22;11197;53.110;8.468;2022-11-28T03:05:57;6.40;99.90
22065;DHT22;11197;53.110;8.468;2022-11-28T03:16:35;6.40;99.90
22065;DHT22;11197;53.110;8.468;2022-11-28T03:22:02;6.40;99.90
22065;DHT22;11197;53.110;8.468;2022-11-28T03:27:05;6.40;99.90
22065;DHT22;11197;53.110;8.468;2022-11-28T03:30:00;6.40;99.90
22065;DHT22;11197;53.110;8.468;2022-11-28T03:32:34;6.40;99.90
22065;DHT22;11197;53.110;8.468;2022-11-28T03:35:23;6.40;99.90
22065;DHT22;11197;53.110;8.468;2022-11-28T03:37:59;6.40;99.90
22065;DHT22;11197;53.110;8.468;2022-11-28T03:40:31;6.40;99.90
22065;DHT22;11197;53.110;8.468;2022-11-28T03:43:09;6.40;99.90
22065;DHT22;11197;53.110;8.468;2022-11-28T03:45:39;6.40;99.90
22065;DHT22;11197;53.110;8.468;2022-11-28T03:48:11;6.40;99.90
22065;DHT22;11197;53.110;8.468;2022-11-28T03:50:46;6.40;99.90
22065;DHT22;11197;53.110;8.468;2022-11-28T03:53:23;6.40;99.90
22065;DHT22;11197;53.110;8.468;2022-11-28T03:56:10;6.40;99.90
22065;DHT22;11197;53.110;8.468;2022-11-28T03:58:51;6.40;99.90
22065;DHT22;11197;53.110;8.468;2022-11-28T04:06:59;6.40;99.90
22065;DHT22;11197;53.110;8.468;2022-11-28T04:12:08;6.40;99.90
22065;DHT22;11197;53.110;8.468;2022-11-28T04:14:40;6.40;99.90
22065;DHT22;11197;53.110;8.468;2022-11-28T04:17:43;6.40;99.90
22065;DHT22;11197;53.110;8.468;2022-11-28T04:20:12;6.40;99.90
22065;DHT22;11197;53.110;8.468;2022-11-28T04:23:01;6.40;99.90
22065;DHT22;11197;53.110;8.468;2022-11-28T04:25:34;6.40;99.90
22065;DHT22;11197;53.110;8.468;2022-11-28T04:28:03;6.40;99.90
22065;DHT22;11197;53.110;8.468;2022-11-28T04:30:29;6.40;99.90
22065;DHT22;11197;53.110;8.468;2022-11-28T04:32:59;6.40;99.90
22065;DHT22;11197;53.110;8.468;2022-11-28T04:35:30;6.40;99.90
22065;DHT22;11197;53.110;8.468;2022-11-28T04:37:59;6.40;99.90
22065;DHT22;11197;53.110;8.468;2022-11-28T04:40:32;6.40;99.90
22065;DHT22;11197;53.110;8.468;2022-11-28T04:43:05;6.40;99.90
22065;DHT22;11197;53.110;8.468;2022-11-28T04:45:39;6.40;99.90
22065;DHT22;11197;53.110;8.468;2022-11-28T04:48:08;6.40;99.90
22065;DHT22;11197;53.110;8.468;2022-11-28T04:50:49;6.40;99.90
22065;DHT22;11197;53.110;8.468;2022-11-28T04:53:59;6.40;99.90
22065;DHT22;11197;53.110;8.468;2022-11-28T04:56:24;6.40;99.90
22065;DHT22;11197;53.110;8.468;2022-11-28T04:58:53;6.30;99.90
22065;DHT22;11197;53.110;8.468;2022-11-28T05:01:25;6.40;99.90
22065;DHT22;11197;53.110;8.468;2022-11-28T05:03:52;6.40;99.90
22065;DHT22;11197;53.110;8.468;2022-11-28T05:06:31;6.30;99.90
22065;DHT22;11197;53.110;8.468;2022-11-28T05:08:57;6.40;99.90
22065;DHT22;11197;53.110;8.468;2022-11-28T05:11:24;6.40;99.90
22065;DHT22;11197;53.110;8.468;2022-11-28T05:13:50;6.40;99.90
22065;DHT22;11197;53.110;8.468;2022-11-28T05:16:17;6.40;99.90
22065;DHT22;11197;53.110;8.468;2022-11-28T05:18:43;6.40;99.90
22065;DHT22;11197;53.110;8.468;2022-11-28T05:21:10;6.40;99.90
22065;DHT22;11197;53.110;8.468;2022-11-28T05:23:37;6.40;99.90
22065;DHT22;11197;53.110;8.468;2022-11-28T05:26:07;6.40;99.90
22065;DHT22;11197;53.110;8.468;2022-11-28T05:28:33;6.40;99.90
22065;DHT22;11197;53.110;8.468;2022-11-28T05:31:01;6.40;99.90
22065;DHT22;11197;53.110;8.468;2022-11-28T05:33:30;6.40;99.90
22065;DHT22;11197;53.110;8.468;2022-11-28T05:36:05;6.40;99.90
22065;DHT22;11197;53.110;8.468;2022-11-28T05:38:32;6.40;99.90
22065;DHT22;11197;53.110;8.468;2022-11-28T05:40:59;6.40;99.90
22065;DHT22;11197;53.110;8.468;2022-11-28T05:43:26;6.40;99.90
22065;DHT22;11197;53.110;8.468;2022-11-28T05:45:53;6.40;99.90
22065;DHT22;11197;53.110;8.468;2022-11-28T05:48:20;6.40;99.90
22065;DHT22;11197;53.110;8.468;2022-11-28T05:50:46;6.40;99.90
22065;DHT22;11197;53.110;8.468;2022-11-28T05:53:16;6.40;99.90
22065;DHT22;11197;53.110;8.468;2022-11-28T05:55:43;6.40;99.90
22065;DHT22;11197;53.110;8.468;2022-11-28T05:58:09;6.40;99.90
22065;DHT22;11197;53.110;8.468;2022-11-28T06:00:35;6.40;99.90
22065;DHT22;11197;53.110;8.468;2022-11-28T06:03:03;6.40;99.90
22065;DHT22;11197;53.110;8.468;2022-11-28T06:05:30;6.40;99.90
22065;DHT22;11197;53.110;8.468;2022-11-28T06:07:56;6.40;99.90
22065;DHT22;11197;53.110;8.468;2022-11-28T06:10:22;6.40;99.90
22065;DHT22;11197;53.110;8.468;2022-11-28T06:12:48;6.40;99.90
22065;DHT22;11197;53.110;8.468;2022-11-28T06:15:14;6.40;99.90
22065;DHT22;11197;53.110;8.468;2022-11-28T06:17:40;6.40;99.90
22065;DHT22;11197;53.110;8.468;2022-11-28T06:20:07;6.40;99.90
22065;DHT22;11197;53.110;8.468;2022-11-28T06:22:34;6.40;99.90
22065;DHT22;11197;53.110;8.468;2022-11-28T06:25:00;6.40;99.90
22065;DHT22;11197;53.110;8.468;2022-11-28T06:27:26;6.40;99.90
22065;DHT22;11197;53.110;8.468;2022-11-28T06:29:52;6.50;99.90
22065;DHT22;11197;53.110;8.468;2022-11-28T06:32:17;6.50;99.90
22065;DHT22;11197;53.110;8.468;2022-11-28T06:34:43;6.40;99.90
22065;DHT22;11197;53.110;8.468;2022-11-28T06:37:09;6.40;99.90
22065;DHT22;11197;53.110;8.468;2022-11-28T06:39:35;6.50;99.90
22065;DHT22;11197;53.110;8.468;2022-11-28T06:42:01;6.40;99.90
22065;DHT22;11197;53.110;8.468;2022-11-28T06:44:27;6.40;99.90
22065;DHT22;11197;53.110;8.468;2022-11-28T06:46:53;6.40;99.90
22065;DHT22;11197;53.110;8.468;2022-11-28T06:49:19;6.40;99.90
22065;DHT22;11197;53.110;8.468;2022-11-28T06:51:45;6.40;99.90
22065;DHT22;11197;53.110;8.468;2022-11-28T06:54:11;6.40;99.90
22065;DHT22;11197;53.110;8.468;2022-11-28T06:56:39;6.40;99.90
22065;DHT22;11197;53.110;8.468;2022-11-28T06:59:10;6.30;99.90
22065;DHT22;11197;53.110;8.468;2022-11-28T07:01:37;6.40;99.90
22065;DHT22;11197;53.110;8.468;2022-11-28T07:04:03;6.30;99.90
22065;DHT22;11197;53.110;8.468;2022-11-28T07:06:29;6.30;99.90
22065;DHT22;11197;53.110;8.468;2022-11-28T07:08:58;6.40;99.90
22065;DHT22;11197;53.110;8.468;2022-11-28T07:11:29;6.30;99.90
22065;DHT22;11197;53.110;8.468;2022-11-28T07:13:56;6.30;99.90
22065;DHT22;11197;53.110;8.468;2022-11-28T07:16:25;6.40;99.90
22065;DHT22;11197;53.110;8.468;2022-11-28T07:18:51;6.40;99.90
22065;DHT22;11197;53.110;8.468;2022-11-28T07:21:18;6.30;99.90
22065;DHT22;11197;53.110;8.468;2022-11-28T07:23:45;6.30;99.90
22065;DHT22;11197;53.110;8.468;2022-11-28T07:26:14;6.30;99.90
22065;DHT22;11197;53.110;8.468;2022-11-28T07:28:41;6.30;99.90
22065;DHT22;11197;53.110;8.468;2022-11-28T07:31:15;6.30;99.90
22065;DHT22;11197;53.110;8.468;2022-11-28T07:33:47;6.40;99.90
22065;DHT22;11197;53.110;8.468;2022-11-28T07:38:48;6.40;99.90
22065;DHT22;11197;53.110;8.468;2022-11-28T07:41:15;6.40;99.90
22065;DHT22;11197;53.110;8.468;2022-11-28T07:43:43;6.30;99.90
22065;DHT22;11197;53.110;8.468;2022-11-28T07:46:12;6.30;99.90
22065;DHT22;11197;53.110;8.468;2022-11-28T07:48:38;6.30;99.90
22065;DHT22;11197;53.110;8.468;2022-11-28T07:51:11;6.30;99.90
22065;DHT22;11197;53.110;8.468;2022-11-28T07:53:37;6.40;99.90
22065;DHT22;11197;53.110;8.468;2022-11-28T07:56:06;6.40;99.90
22065;DHT22;11197;53.110;8.468;2022-11-28T07:58:33;6.40;99.90
22065;DHT22;11197;53.110;8.468;2022-11-28T08:01:21;6.40;99.90
22065;DHT22;11197;53.110;8.468;2022-11-28T08:03:49;6.30;99.90
22065;DHT22;11197;53.110;8.468;2022-11-28T08:06:16;6.40;99.90
22065;DHT22;11197;53.110;8.468;2022-11-28T08:08:43;6.40;99.90
22065;DHT22;11197;53.110;8.468;2022-11-28T08:11:10;6.40;99.90
22065;DHT22;11197;53.110;8.468;2022-11-28T08:13:37;6.30;99.90
22065;DHT22;11197;53.110;8.468;2022-11-28T08:16:08;6.40;99.90
22065;DHT22;11197;53.110;8.468;2022-11-28T08:18:36;6.30;99.90
22065;DHT22;11197;53.110;8.468;2022-11-28T08:21:08;6.40;99.90
22065;DHT22;11197;53.110;8.468;2022-11-28T08:23:35;6.40;99.90
22065;DHT22;11197;53.110;8.468;2022-11-28T08:26:02;6.40;99.90
22065;DHT22;11197;53.110;8.468;2022-11-28T08:28:29;6.40;99.90
22065;DHT22;11197;53.110;8.468;2022-11-28T08:30:55;6.40;99.90
22065;DHT22;11197;53.110;8.468;2022-11-28T08:33:22;6.40;99.90
22065;DHT22;11197;53.110;8.468;2022-11-28T08:35:50;6.40;99.90
22065;DHT22;11197;53.110;8.468;2022-11-28T08:38:16;6.40;99.90
22065;DHT22;11197;53.110;8.468;2022-11-28T08:40:45;6.40;99.90
22065;DHT22;11197;53.110;8.468;2022-11-28T08:43:14;6.40;99.90
22065;DHT22;11197;53.110;8.468;2022-11-28T08:45:40;6.40;99.90
22065;DHT22;11197;53.110;8.468;2022-11-28T08:48:06;6.40;99.90
22065;DHT22;11197;53.110;8.468;2022-11-28T08:50:32;6.40;99.90
22065;DHT22;11197;53.110;8.468;2022-11-28T08:52:58;6.40;99.90
22065;DHT22;11197;53.110;8.468;2022-11-28T08:55:24;6.40;99.90
22065;DHT22;11197;53.110;8.468;2022-11-28T08:57:49;6.40;99.90
22065;DHT22;11197;53.110;8.468;2022-11-28T09:00:16;6.40;99.90
22065;DHT22;11197;53.110;8.468;2022-11-28T09:02:42;6.40;99.90
22065;DHT22;11197;53.110;8.468;2022-11-28T09:05:14;6.40;99.90
22065;DHT22;11197;53.110;8.468;2022-11-28T09:07:40;6.40;99.90
22065;DHT22;11197;53.110;8.468;2022-11-28T09:10:06;6.40;99.90
22065;DHT22;11197;53.110;8.468;2022-11-28T09:12:32;6.40;99.90
22065;DHT22;11197;53.110;8.468;2022-11-28T09:14:58;6.40;99.90
22065;DHT22;11197;53.110;8.468;2022-11-28T09:17:24;6.40;99.90
22065;DHT22;11197;53.110;8.468;2022-11-28T09:19:50;6.40;99.90
22065;DHT22;11197;53.110;8.468;2022-11-28T09:22:16;6.40;99.90
22065;DHT22;11197;53.110;8.468;2022-11-28T09:24:42;6.40;99.90
22065;DHT22;11197;53.110;8.468;2022-11-28T09:27:08;6.40;99.90
22065;DHT22;11197;53.110;8.468;2022-11-28T09:29:34;6.40;99.90
22065;DHT22;11197;53.110;8.468;2022-11-28T09:32:00;6.40;99.90
22065;DHT22;11197;53.110;8.468;2022-11-28T09:34:26;6.40;99.90
22065;DHT22;11197;53.110;8.468;2022-11-28T09:36:52;6.40;99.90
22065;DHT22;11197;53.110;8.468;2022-11-28T09:39:18;6.40;99.90
22065;DHT22;11197;53.110;8.468;2022-11-28T09:42:08;6.40;99.90
22065;DHT22;11197;53.110;8.468;2022-11-28T09:47:18;6.40;99.90
22065;DHT22;11197;53.110;8.468;2022-11-28T09:49:57;6.40;99.90
22065;DHT22;11197;53.110;8.468;2022-11-28T09:57:48;6.40;99.90
22065;DHT22;11197;53.110;8.468;2022-11-28T10:00:18;6.40;99.90
22065;DHT22;11197;53.110;8.468;2022-11-28T10:03:33;6.40;99.90
22065;DHT22;11197;53.110;8.468;2022-11-28T10:08:34;6.40;99.90
22065;DHT22;11197;53.110;8.468;2022-11-28T10:11:11;6.40;99.90
22065;DHT22;11197;53.110;8.468;2022-11-28T10:14:01;6.40;99.90
22065;DHT22;11197;53.110;8.468;2022-11-28T10:19:43;6.40;99.90
22065;DHT22;11197;53.110;8.468;2022-11-28T10:22:16;6.40;99.90
22065;DHT22;11197;53.110;8.468;2022-11-28T10:24:51;6.50;99.90
22065;DHT22;11197;53.110;8.468;2022-11-28T10:27:19;6.40;99.90
22065;DHT22;11197;53.110;8.468;2022-11-28T10:29:50;6.40;99.90
22065;DHT22;11197;53.110;8.468;2022-11-28T10:32:29;6.50;99.90
22065;DHT22;11197;53.110;8.468;2022-11-28T10:35:02;6.50;99.90
22065;DHT22;11197;53.110;8.468;2022-11-28T10:37:32;6.50;99.90
22065;DHT22;11197;53.110;8.468;2022-11-28T10:40:38;6.50;99.90
22065;DHT22;11197;53.110;8.468;2022-11-28T10:43:12;6.50;99.90
22065;DHT22;11197;53.110;8.468;2022-11-28T10:46:01;6.40;99.90
22065;DHT22;11197;53.110;8.468;2022-11-28T10:57:11;6.50;99.90
22065;DHT22;11197;53.110;8.468;2022-11-28T10:59:55;6.50;99.90
22065;DHT22;11197;53.110;8.468;2022-11-28T11:02:52;6.60;99.90
22065;DHT22;11197;53.110;8.468;2022-11-28T11:05:32;6.60;99.90
22065;DHT22;11197;53.110;8.468;2022-11-28T11:08:16;6.60;99.90
22065;DHT22;11197;53.110;8.468;2022-11-28T11:10:47;6.60;99.90
22065;DHT22;11197;53.110;8.468;2022-11-28T11:13:23;6.60;99.90
22065;DHT22;11197;53.110;8.468;2022-11-28T11:15:57;6.60;99.90
22065;DHT22;11197;53.110;8.468;2022-11-28T11:18:27;6.60;99.90
22065;DHT22;11197;53.110;8.468;2022-11-28T11:21:18;6.60;99.90
22065;DHT22;11197;53.110;8.468;2022-11-28T11:23:46;6.60;99.90
22065;DHT22;11197;53.110;8.468;2022-11-28T11:26:25;6.60;99.90
22065;DHT22;11197;53.110;8.468;2022-11-28T11:28:52;6.60;99.90
22065;DHT22;11197;53.110;8.468;2022-11-28T11:31:41;6.60;99.90
22065;DHT22;11197;53.110;8.468;2022-11-28T11:34:17;6.60;99.90
22065;DHT22;11197;53.110;8.468;2022-11-28T11:36:45;6.60;99.90
22065;DHT22;11197;53.110;8.468;2022-11-28T11:41:49;6.70;99.90
22065;DHT22;11197;53.110;8.468;2022-11-28T11:44:24;6.70;99.90
22065;DHT22;11197;53.110;8.468;2022-11-28T11:46:58;6.70;99.90
22065;DHT22;11197;53.110;8.468;2022-11-28T11:49:40;6.70;99.90
22065;DHT22;11197;53.110;8.468;2022-11-28T11:57:38;6.70;99.90
22065;DHT22;11197;53.110;8.468;2022-11-28T12:00:21;6.80;99.90
22065;DHT22;11197;53.110;8.468;2022-11-28T12:02:59;6.80;99.90
22065;DHT22;11197;53.110;8.468;2022-11-28T12:06:08;6.80;99.90
22065;DHT22;11197;53.110;8.468;2022-11-28T12:08:50;6.80;99.90
22065;DHT22;11197;53.110;8.468;2022-11-28T12:11:28;6.80;99.90
22065;DHT22;11197;53.110;8.468;2022-11-28T12:14:13;6.80;99.90
22065;DHT22;11197;53.110;8.468;2022-11-28T12:17:10;6.80;99.90
22065;DHT22;11197;53.110;8.468;2022-11-28T12:37:28;6.80;99.90
22065;DHT22;11197;53.110;8.468;2022-11-28T12:48:48;6.80;99.90
22065;DHT22;11197;53.110;8.468;2022-11-28T12:51:43;6.90;99.90
22065;DHT22;11197;53.110;8.468;2022-11-28T13:05:13;7.10;99.90
22065;DHT22;11197;53.110;8.468;2022-11-28T13:10:55;7.20;99.90
22065;DHT22;11197;53.110;8.468;2022-11-28T13:19:03;7.20;99.90
22065;DHT22;11197;53.110;8.468;2022-11-28T13:22:04;7.30;99.90
22065;DHT22;11197;53.110;8.468;2022-11-28T13:24:47;7.30;99.90
22065;DHT22;11197;53.110;8.468;2022-11-28T13:27:39;7.40;99.90
22065;DHT22;11197;53.110;8.468;2022-11-28T13:30:25;7.40;99.90
22065;DHT22;11197;53.110;8.468;2022-11-28T13:33:00;7.40;99.90
22065;DHT22;11197;53.110;8.468;2022-11-28T13:35:29;7.30;99.90
22065;DHT22;11197;53.110;8.468;2022-11-28T13:38:01;7.30;99.90
22065;DHT22;11197;53.110;8.468;2022-11-28T13:45:42;7.20;99.90
22065;DHT22;11197;53.110;8.468;2022-11-28T13:51:23;7.10;99.90
22065;DHT22;11197;53.110;8.468;2022-11-28T13:56:46;7.10;99.90
22065;DHT22;11197;53.110;8.468;2022-11-28T13:59:19;7.10;99.90
22065;DHT22;11197;53.110;8.468;2022-11-28T14:02:02;7.10;99.90
22065;DHT22;11197;53.110;8.468;2022-11-28T14:04:31;7.00;99.90
22065;DHT22;11197;53.110;8.468;2022-11-28T14:07:02;7.00;99.90
22065;DHT22;11197;53.110;8.468;2022-11-28T14:09:52;7.00;99.90
22065;DHT22;11197;53.110;8.468;2022-11-28T14:18:30;7.00;99.90
22065;DHT22;11197;53.110;8.468;2022-11-28T14:21:22;7.00;99.90
22065;DHT22;11197;53.110;8.468;2022-11-28T14:24:20;7.00;99.90
22065;DHT22;11197;53.110;8.468;2022-11-28T14:26:57;7.00;99.90
22065;DHT22;11197;53.110;8.468;2022-11-28T14:29:33;6.90;99.90
22065;DHT22;11197;53.110;8.468;2022-11-28T14:32:00;6.90;99.90
22065;DHT22;11197;53.110;8.468;2022-11-28T14:34:48;6.90;99.90
22065;DHT22;11197;53.110;8.468;2022-11-28T14:39:56;6.90;99.90
22065;DHT22;11197;53.110;8.468;2022-11-28T14:47:30;6.90;99.90
22065;DHT22;11197;53.110;8.468;2022-11-28T14:52:47;6.90;99.90
22065;DHT22;11197;53.110;8.468;2022-11-28T14:55:22;6.90;99.90
22065;DHT22;11197;53.110;8.468;2022-11-28T14:57:59;6.90;99.90
22065;DHT22;11197;53.110;8.468;2022-11-28T15:00:27;7.40;99.90
22065;DHT22;11197;53.110;8.468;2022-11-28T15:03:09;8.90;99.90
22065;DHT22;11197;53.110;8.468;2022-11-28T15:06:23;9.90;99.90
22065;DHT22;11197;53.110;8.468;2022-11-28T15:09:16;10.30;99.90
22065;DHT22;11197;53.110;8.468;2022-11-28T15:14:25;9.90;99.90
22065;DHT22;11197;53.110;8.468;2022-11-28T15:16:59;9.60;99.90
22065;DHT22;11197;53.110;8.468;2022-11-28T15:19:32;9.30;99.90
22065;DHT22;11197;53.110;8.468;2022-11-28T15:22:00;9.00;99.90
22065;DHT22;11197;53.110;8.468;2022-11-28T15:24:30;8.70;99.90
22065;DHT22;11197;53.110;8.468;2022-11-28T15:29:34;8.20;99.90
22065;DHT22;11197;53.110;8.468;2022-11-28T15:32:02;8.00;99.90
22065;DHT22;11197;53.110;8.468;2022-11-28T15:34:33;7.90;99.90
22065;DHT22;11197;53.110;8.468;2022-11-28T15:37:19;7.80;99.90
22065;DHT22;11197;53.110;8.468;2022-11-28T15:39:48;7.60;99.90
22065;DHT22;11197;53.110;8.468;2022-11-28T15:42:41;7.60;99.90
22065;DHT22;11197;53.110;8.468;2022-11-28T15:45:30;7.60;99.90
22065;DHT22;11197;53.110;8.468;2022-11-28T15:47:57;7.70;99.90
22065;DHT22;11197;53.110;8.468;2022-11-28T15:50:27;7.70;99.90
22065;DHT22;11197;53.110;8.468;2022-11-28T15:53:14;7.70;99.90
22065;DHT22;11197;53.110;8.468;2022-11-28T15:55:42;7.60;99.90
22065;DHT22;11197;53.110;8.468;2022-11-28T16:00:49;7.50;99.90
22065;DHT22;11197;53.110;8.468;2022-11-28T16:03:22;7.40;99.90
22065;DHT22;11197;53.110;8.468;2022-11-28T16:05:51;7.40;99.90
22065;DHT22;11197;53.110;8.468;2022-11-28T16:08:30;7.30;99.90
22065;DHT22;11197;53.110;8.468;2022-11-28T16:10:58;7.30;99.90
22065;DHT22;11197;53.110;8.468;2022-11-28T16:13:26;7.20;99.90
22065;DHT22;11197;53.110;8.468;2022-11-28T16:15:53;7.20;99.90
22065;DHT22;11197;53.110;8.468;2022-11-28T16:18:21;7.20;99.90
22065;DHT22;11197;53.110;8.468;2022-11-28T16:20:48;7.10;99.90
22065;DHT22;11197;53.110;8.468;2022-11-28T16:23:27;7.10;99.90
22065;DHT22;11197;53.110;8.468;2022-11-28T16:28:35;7.00;99.90
22065;DHT22;11197;53.110;8.468;2022-11-28T16:31:16;7.00;99.90
22065;DHT22;11197;53.110;8.468;2022-11-28T16:33:45;7.00;99.90
22065;DHT22;11197;53.110;8.468;2022-11-28T16:41:29;6.90;99.90
22065;DHT22;11197;53.110;8.468;2022-11-28T16:44:13;6.90;99.90
22065;DHT22;11197;53.110;8.468;2022-11-28T16:46:56;6.90;99.90
22065;DHT22;11197;53.110;8.468;2022-11-28T16:54:55;6.90;99.90
22065;DHT22;11197;53.110;8.468;2022-11-28T16:57:22;6.80;99.90
22065;DHT22;11197;53.110;8.468;2022-11-28T16:59:49;6.80;99.90
22065;DHT22;11197;53.110;8.468;2022-11-28T17:02:20;6.80;99.90
22065;DHT22;11197;53.110;8.468;2022-11-28T17:04:48;6.80;99.90
22065;DHT22;11197;53.110;8.468;2022-11-28T17:07:20;6.80;99.90
22065;DHT22;11197;53.110;8.468;2022-11-28T17:09:47;6.80;99.90
22065;DHT22;11197;53.110;8.468;2022-11-28T17:12:19;6.80;99.90
22065;DHT22;11197;53.110;8.468;2022-11-28T17:14:47;6.80;99.90
22065;DHT22;11197;53.110;8.468;2022-11-28T17:17:14;6.80;99.90
22065;DHT22;11197;53.110;8.468;2022-11-28T17:19:40;6.70;99.90
22065;DHT22;11197;53.110;8.468;2022-11-28T17:22:09;6.70;99.90
22065;DHT22;11197;53.110;8.468;2022-11-28T17:24:36;6.70;99.90
22065;DHT22;11197;53.110;8.468;2022-11-28T17:27:03;6.70;99.90
22065;DHT22;11197;53.110;8.468;2022-11-28T17:29:32;6.70;99.90
22065;DHT22;11197;53.110;8.468;2022-11-28T17:31:59;6.80;99.90
22065;DHT22;11197;53.110;8.468;2022-11-28T17:34:32;6.70;99.90
22065;DHT22;11197;53.110;8.468;2022-11-28T17:36:59;6.70;99.90
22065;DHT22;11197;53.110;8.468;2022-11-28T17:39:26;6.70;99.90
22065;DHT22;11197;53.110;8.468;2022-11-28T17:41:52;6.70;99.90
22065;DHT22;11197;53.110;8.468;2022-11-28T17:44:21;6.70;99.90
22065;DHT22;11197;53.110;8.468;2022-11-28T17:46:52;6.70;99.90
22065;DHT22;11197;53.110;8.468;2022-11-28T17:49:19;6.70;99.90
22065;DHT22;11197;53.110;8.468;2022-11-28T17:51:46;6.70;99.90
22065;DHT22;11197;53.110;8.468;2022-11-28T17:54:14;6.70;99.90
22065;DHT22;11197;53.110;8.468;2022-11-28T17:56:44;6.70;99.90
22065;DHT22;11197;53.110;8.468;2022-11-28T17:59:13;6.70;99.90
22065;DHT22;11197;53.110;8.468;2022-11-28T18:01:40;6.70;99.90
22065;DHT22;11197;53.110;8.468;2022-11-28T18:04:06;6.70;99.90
22065;DHT22;11197;53.110;8.468;2022-11-28T18:06:32;6.70;99.90
22065;DHT22;11197;53.110;8.468;2022-11-28T18:09:00;6.60;99.90
22065;DHT22;11197;53.110;8.468;2022-11-28T18:11:27;6.60;99.90
22065;DHT22;11197;53.110;8.468;2022-11-28T18:13:54;6.70;99.90
22065;DHT22;11197;53.110;8.468;2022-11-28T18:16:22;6.70;99.90
22065;DHT22;11197;53.110;8.468;2022-11-28T18:18:49;6.70;99.90
22065;DHT22;11197;53.110;8.468;2022-11-28T18:21:18;6.60;99.90
22065;DHT22;11197;53.110;8.468;2022-11-28T18:23:47;6.70;99.90
22065;DHT22;11197;53.110;8.468;2022-11-28T18:26:16;6.60;99.90
22065;DHT22;11197;53.110;8.468;2022-11-28T18:28:43;6.60;99.90
22065;DHT22;11197;53.110;8.468;2022-11-28T18:31:18;6.60;99.90
22065;DHT22;11197;53.110;8.468;2022-11-28T18:33:45;6.70;99.90
22065;DHT22;11197;53.110;8.468;2022-11-28T18:36:21;6.60;99.90
22065;DHT22;11197;53.110;8.468;2022-11-28T18:38:48;6.60;99.90
22065;DHT22;11197;53.110;8.468;2022-11-28T18:41:16;6.60;99.90
22065;DHT22;11197;53.110;8.468;2022-11-28T18:43:43;6.60;99.90
22065;DHT22;11197;53.110;8.468;2022-11-28T18:46:15;6.60;99.90
22065;DHT22;11197;53.110;8.468;2022-11-28T18:48:44;6.60;99.90
22065;DHT22;11197;53.110;8.468;2022-11-28T18:51:15;6.60;99.90
22065;DHT22;11197;53.110;8.468;2022-11-28T18:53:42;6.60;99.90
22065;DHT22;11197;53.110;8.468;2022-11-28T18:56:09;6.60;99.90
22065;DHT22;11197;53.110;8.468;2022-11-28T18:58:38;6.60;99.90
22065;DHT22;11197;53.110;8.468;2022-11-28T19:01:13;6.60;99.90
22065;DHT22;11197;53.110;8.468;2022-11-28T19:03:46;6.60;99.90
22065;DHT22;11197;53.110;8.468;2022-11-28T19:06:12;6.60;99.90